Time;durP1;ratioP1;P1;durP2;ratioP2;P2;SDS_P1;SDS_P2;PMS_P1;PMS_P2;Temp;Humidity;BMP_temperature;BMP_pressure;BME280_temperature;BME280_humidity;BME280_pressure;Samples;Min_cycle;Max_cycle;Signal;HPM_P1;HPM_P2
2021/03/30 00:00:23;;;;;;;;;;;256.30;1740.80;;;;;;5024113;28;20512;-74
2021/03/30 00:02:50;;;;;;;41.95;21.85;;;256.40;1740.80;;;;;;5022836;28;19940;-74
2021/03/30 00:05:16;;;;;;;48.50;25.05;;;256.20;1766.40;;;;;;5015547;28;20058;-75
2021/03/30 00:07:42;;;;;;;46.72;24.08;;;256.30;1740.80;;;;;;5018871;28;20025;-75
2021/03/30 00:10:15;;;;;;;49.15;24.40;;;256.20;1740.80;;;;;;5034762;28;20071;-83
2021/03/30 00:12:41;;;;;;;66.40;26.20;;;256.20;1740.80;;;;;;5034364;28;20072;-74
2021/03/30 00:15:09;;;;;;;55.35;28.98;;;256.30;1715.20;;;;;;5034031;28;20071;-75
2021/03/30 00:17:34;;;;;;;55.30;28.30;;;256.20;1740.80;;;;;;5034468;28;20022;-74
2021/03/30 00:20:00;;;;;;;47.58;25.27;;;256.10;1740.80;;;;;;5034993;28;20461;-74
2021/03/30 00:22:26;;;;;;;;;;;256.10;1766.40;;;;;;5034023;28;20318;-78
2021/03/30 00:24:52;;;;;;;41.17;22.63;;;256.00;1740.80;;;;;;5031100;28;19912;-74
2021/03/30 00:27:17;;;;;;;;;;;231.20;1766.40;;;;;;5034073;28;20554;-74
2021/03/30 00:29:43;;;;;;;48.50;25.50;;;231.10;1766.40;;;;;;5034764;28;20044;-74
2021/03/30 00:32:15;;;;;;;;;;;231.20;1766.40;;;;;;5035214;28;20432;-74
2021/03/30 00:34:40;;;;;;;50.35;23.02;;;231.20;1792.00;;;;;;5035117;28;19905;-74
2021/03/30 00:37:06;;;;;;;;;;;231.10;1792.00;;;;;;5034579;28;20022;-81
2021/03/30 00:39:32;;;;;;;52.53;24.48;;;231.20;1792.00;;;;;;5033259;28;19992;-81
2021/03/30 00:41:58;;;;;;;56.90;29.08;;;231.10;1792.00;;;;;;5034373;28;20025;-81
2021/03/30 00:44:24;;;;;;;;;;;231.20;1766.40;;;;;;5034215;28;20025;-81
2021/03/30 00:46:51;;;;;;;49.80;24.48;;;256.00;1740.80;;;;;;5033325;28;20344;-75
2021/03/30 00:49:19;;;;;;;51.95;27.92;;;256.10;1766.40;;;;;;5034323;28;20100;-74
2021/03/30 00:51:47;;;;;;;65.60;29.30;;;231.20;1817.60;;;;;;5034261;28;20099;-74
2021/03/30 00:54:14;;;;;;;52.20;26.15;;;231.30;1792.00;;;;;;5034179;28;20025;-74
2021/03/30 00:56:41;;;;;;;55.00;26.17;;;256.00;1766.40;;;;;;5034110;28;20472;-74
2021/03/30 00:59:07;;;;;;;43.80;23.30;;;256.20;1715.20;;;;;;5034189;28;20022;-74
2021/03/30 01:01:33;;;;;;;49.88;24.63;;;256.30;1740.80;;;;;;5034148;28;20026;-74
2021/03/30 01:04:00;;;;;;;50.28;26.08;;;256.20;1740.80;;;;;;5034007;28;20444;-74
2021/03/30 01:06:26;;;;;;;46.78;24.88;;;256.20;1740.80;;;;;;5033790;28;20477;-79
2021/03/30 01:09:11;;;;;;;44.17;24.17;;;256.20;1740.80;;;;;;5033818;28;20039;-80
2021/03/30 01:11:54;;;;;;;52.25;22.77;;;256.30;1766.40;;;;;;5045642;28;20098;-82
2021/03/30 01:14:26;;;;;;;41.22;23.02;;;256.50;1740.80;;;;;;5053550;28;20025;-74
2021/03/30 01:16:59;;;;;;;45.83;22.48;;;256.50;1740.80;;;;;;5053649;28;20165;-74
2021/03/30 01:20:07;;;;;;;40.83;21.85;;;256.40;1766.40;;;;;;5053426;28;20017;-74
2021/03/30 01:23:05;;;;;;;38.40;20.42;;;256.40;1792.00;;;;;;4972376;28;20139;-80
2021/03/30 01:25:34;;;;;;;35.83;21.63;;;256.40;1792.00;;;;;;4971837;28;20035;-75
2021/03/30 01:28:20;;;;;;;45.85;24.48;;;256.40;1740.80;;;;;;4972634;28;20039;-75
2021/03/30 01:30:47;;;;;;;45.00;20.52;;;256.50;1740.80;;;;;;4972718;28;20522;-75
2021/03/30 01:33:19;;;;;;;45.47;23.20;;;256.50;1740.80;;;;;;4972685;28;20067;-74
2021/03/30 01:35:46;;;;;;;37.47;20.10;;;256.50;1766.40;;;;;;4972467;28;20047;-74
2021/03/30 01:38:13;;;;;;;42.95;22.30;;;256.40;1792.00;;;;;;4972470;28;20027;-75
2021/03/30 01:40:40;;;;;;;44.42;21.67;;;256.20;1792.00;;;;;;4972298;28;20039;-74
2021/03/30 01:43:07;;;;;;;46.63;24.08;;;256.20;1792.00;;;;;;4972246;28;20117;-74
2021/03/30 01:45:34;;;;;;;54.17;24.13;;;256.10;1766.40;;;;;;4971972;28;20064;-81
2021/03/30 01:48:01;;;;;;;44.65;22.17;;;231.30;1792.00;;;;;;4972294;28;20541;-75
2021/03/30 01:50:29;;;;;;;35.17;21.20;;;231.20;1792.00;;;;;;4972391;28;20082;-74
2021/03/30 01:52:56;;;;;;;39.63;20.50;;;230.90;1817.60;;;;;;4972076;28;20031;-79
2021/03/30 01:55:22;;;;;;;35.65;17.02;;;230.60;1868.80;;;;;;4972436;28;20073;-74
2021/03/30 01:57:53;;;;;;;26.00;13.73;;;205.70;1843.20;;;;;;4972374;28;20098;-74
2021/03/30 02:00:23;;;;;;;21.83;13.82;;;205.50;1817.60;;;;;;5039587;28;20468;-74
2021/03/30 02:02:49;;;;;;;27.88;11.13;;;205.20;1817.60;;;;;;5052901;28;20017;-74
2021/03/30 02:05:17;;;;;;;17.60;9.10;;;180.10;1817.60;;;;;;5051890;28;20103;-74
2021/03/30 02:07:44;;;;;;;17.15;8.13;;;179.60;1817.60;;;;;;5040080;28;20010;-74
2021/03/30 02:10:20;;;;;;;19.35;9.63;;;179.40;1817.60;;;;;;5052885;28;20020;-74
2021/03/30 02:12:46;;;;;;;21.50;10.13;;;179.20;1843.20;;;;;;5052933;28;20041;-74
2021/03/30 02:15:12;;;;;;;;;;;179.20;1868.80;;;;;;5053242;28;20021;-74
2021/03/30 02:17:47;;;;;;;22.10;7.30;;;179.20;1868.80;;;;;;5052795;28;20003;-74
2021/03/30 02:20:18;;;;;;;22.58;10.40;;;179.20;1894.40;;;;;;5034905;28;20029;-75
2021/03/30 02:22:52;;;;;;;25.92;10.35;;;179.30;1894.40;;;;;;5052476;28;20039;-81
2021/03/30 02:25:19;;;;;;;23.15;11.23;;;179.50;1920.00;;;;;;5052767;28;20020;-74
2021/03/30 02:27:48;;;;;;;22.35;11.70;;;179.50;1920.00;;;;;;5052649;28;20524;-74
2021/03/30 02:30:16;;;;;;;22.33;12.45;;;179.60;1920.00;;;;;;5052680;28;20469;-75
2021/03/30 02:32:44;;;;;;;26.42;11.57;;;179.80;1894.40;;;;;;5052454;28;20024;-79
2021/03/30 02:35:12;;;;;;;22.42;12.30;;;180.10;1894.40;;;;;;5052606;28;20033;-75
2021/03/30 02:37:39;;;;;;;18.63;10.82;;;204.80;1894.40;;;;;;5054473;28;20028;-77
2021/03/30 02:40:09;;;;;;;17.95;11.40;;;204.90;1868.80;;;;;;5056772;28;20021;-74
2021/03/30 02:42:36;;;;;;;26.13;11.60;;;205.00;1868.80;;;;;;5056270;28;20094;-74
2021/03/30 02:45:04;;;;;;;20.88;10.45;;;204.90;1868.80;;;;;;5056579;28;20492;-82
2021/03/30 02:47:31;;;;;;;22.85;11.45;;;204.80;1868.80;;;;;;5056657;28;20029;-74
2021/03/30 02:49:57;;;;;;;24.50;10.85;;;204.80;1920.00;;;;;;5056366;28;20052;-74
2021/03/30 02:52:23;;;;;;;;;;;205.00;1920.00;;;;;;5056837;28;20056;-75
2021/03/30 02:54:50;;;;;;;22.27;10.27;;;205.10;1868.80;;;;;;5056309;28;19909;-79
2021/03/30 02:57:17;;;;;;;21.98;12.27;;;205.30;1843.20;;;;;;5056397;28;20091;-75
2021/03/30 02:59:44;;;;;;;21.17;12.57;;;205.30;1843.20;;;;;;5056082;28;20075;-74
2021/03/30 03:02:13;;;;;;;25.48;12.00;;;205.40;1843.20;;;;;;5056252;28;20054;-78
2021/03/30 03:04:39;;;;;;;18.65;11.10;;;205.40;1843.20;;;;;;5056137;28;20393;-75
2021/03/30 03:07:05;;;;;;;;;;;205.40;1843.20;;;;;;5056414;28;20029;-75
2021/03/30 03:09:33;;;;;;;28.38;13.20;;;205.40;1843.20;;;;;;5056096;28;20348;-79
2021/03/30 03:11:59;;;;;;;26.38;11.48;;;205.30;1894.40;;;;;;5041211;28;20656;-76
2021/03/30 03:14:26;;;;;;;24.80;14.30;;;205.30;1894.40;;;;;;5028570;28;20080;-75
2021/03/30 03:16:53;;;;;;;30.42;14.18;;;205.30;1894.40;;;;;;5028954;28;20159;-81
2021/03/30 03:19:21;;;;;;;25.67;12.70;;;205.40;1894.40;;;;;;5035725;28;20029;-75
2021/03/30 03:21:48;;;;;;;28.88;11.85;;;205.50;1894.40;;;;;;5036036;28;20053;-75
2021/03/30 03:24:14;;;;;;;28.67;13.25;;;205.60;1894.40;;;;;;5035577;28;20536;-82
2021/03/30 03:26:40;;;;;;;;;;;205.60;1894.40;;;;;;5036316;28;20121;-75
2021/03/30 03:29:17;;;;;;;24.37;12.73;;;205.40;1894.40;;;;;;5035824;28;19905;-74
2021/03/30 03:31:44;;;;;;;24.95;13.65;;;205.30;1894.40;;;;;;5035689;28;20638;-74
2021/03/30 03:34:11;;;;;;;26.33;14.25;;;205.40;1868.80;;;;;;5035831;28;20025;-74
2021/03/30 03:36:39;;;;;;;26.63;13.15;;;205.30;1894.40;;;;;;5035736;28;20029;-75
2021/03/30 03:39:07;;;;;;;25.58;13.85;;;205.30;1894.40;;;;;;5035796;28;20022;-75
2021/03/30 03:41:33;;;;;;;20.08;12.30;;;205.30;1920.00;;;;;;5035463;28;20029;-74
2021/03/30 03:43:59;;;;;;;28.45;13.75;;;205.30;1920.00;;;;;;5035539;28;20041;-76
2021/03/30 03:46:25;;;;;;;;;;;205.30;1868.80;;;;;;5035649;28;20021;-81
2021/03/30 03:48:50;;;;;;;29.35;12.48;;;205.30;1868.80;;;;;;5035248;28;19951;-75
2021/03/30 03:51:17;;;;;;;;;;;205.30;1868.80;;;;;;5034258;28;20385;-74
2021/03/30 03:53:43;;;;;;;30.93;13.13;;;205.20;1894.40;;;;;;5023448;28;19905;-76
2021/03/30 03:56:10;;;;;;;24.50;12.30;;;205.10;1868.80;;;;;;5035267;28;20262;-75
2021/03/30 03:58:46;;;;;;;24.50;12.75;;;205.20;1843.20;;;;;;5035388;28;20018;-75
2021/03/30 04:01:15;;;;;;;24.58;12.93;;;205.30;1817.60;;;;;;5027731;28;20101;-81
2021/03/30 04:03:59;;;;;;;24.83;13.48;;;205.40;1817.60;;;;;;5021619;28;20037;-80
2021/03/30 04:06:33;;;;;;;23.35;12.75;;;205.40;1792.00;;;;;;5035553;28;20075;-81
2021/03/30 04:09:02;;;;;;;28.48;11.88;;;205.50;1792.00;;;;;;5034920;28;20099;-82
2021/03/30 04:11:29;;;;;;;26.50;12.52;;;205.50;1792.00;;;;;;5034959;28;20073;-83
2021/03/30 04:13:58;;;;;;;24.90;13.13;;;205.70;1792.00;;;;;;5034974;28;20072;-80
2021/03/30 04:16:25;;;;;;;26.25;12.38;;;205.70;1792.00;;;;;;5035028;28;20100;-82
2021/03/30 04:18:51;;;;;;;26.67;12.93;;;230.50;1792.00;;;;;;5034982;28;20473;-75
2021/03/30 04:21:21;;;;;;;;;;;230.60;1766.40;;;;;;5035346;28;20075;-74
2021/03/30 04:23:47;;;;;;;27.65;14.07;;;230.60;1766.40;;;;;;5034712;28;19913;-75
2021/03/30 04:26:13;;;;;;;29.23;13.07;;;230.70;1766.40;;;;;;5034607;28;20473;-75
2021/03/30 04:28:39;;;;;;;;;;;230.80;1792.00;;;;;;5035160;28;20040;-74
2021/03/30 04:31:06;;;;;;;29.90;12.32;;;230.90;1766.40;;;;;;5034557;28;20003;-75
2021/03/30 04:33:32;;;;;;;27.25;12.68;;;231.00;1715.20;;;;;;5034622;28;20380;-75
2021/03/30 04:35:57;;;;;;;;;;;231.10;1715.20;;;;;;5034924;28;20025;-74
2021/03/30 04:38:23;;;;;;;27.02;13.90;;;231.10;1715.20;;;;;;5034375;28;19963;-75
2021/03/30 04:40:53;;;;;;;;;;;231.10;1740.80;;;;;;5034821;28;20124;-74
2021/03/30 04:43:20;;;;;;;33.33;14.32;;;231.10;1740.80;;;;;;5034170;28;19924;-75
2021/03/30 04:45:46;;;;;;;33.58;15.30;;;231.20;1715.20;;;;;;5034421;28;20018;-74
2021/03/30 04:48:11;;;;;;;;;;;231.30;1715.20;;;;;;5034626;28;20022;-74
2021/03/30 04:50:37;;;;;;;40.58;14.90;;;231.30;1766.40;;;;;;5034183;28;20408;-74
2021/03/30 04:53:03;;;;;;;;;;;256.00;1740.80;;;;;;5034411;28;20032;-74
2021/03/30 04:55:28;;;;;;;30.70;13.68;;;256.10;1740.80;;;;;;5034169;28;20277;-74
2021/03/30 04:57:54;;;;;;;;;;;256.20;1715.20;;;;;;5033744;28;20068;-74
2021/03/30 05:00:20;;;;;;;38.38;14.23;;;256.20;1766.40;;;;;;5018500;28;19909;-76
2021/03/30 05:02:46;;;;;;;31.05;15.77;;;256.20;1740.80;;;;;;5032914;28;20021;-76
2021/03/30 05:05:12;;;;;;;29.10;15.43;;;256.30;1715.20;;;;;;5032716;28;20021;-75
2021/03/30 05:07:38;;;;;;;28.00;14.85;;;256.40;1740.80;;;;;;5033000;28;20017;-77
2021/03/30 05:10:05;;;;;;;33.90;18.23;;;256.40;1766.40;;;;;;5032638;28;20091;-75
2021/03/30 05:12:31;;;;;;;47.25;17.45;;;256.30;1843.20;;;;;;5031352;28;20049;-74
2021/03/30 05:14:57;;;;;;;;;;;256.20;1894.40;;;;;;5034081;28;20032;-75
2021/03/30 05:17:22;;;;;;;44.13;15.80;;;256.10;1971.20;;;;;;5015745;28;19913;-79
2021/03/30 05:19:48;;;;;;;;;;;256.20;1894.40;;;;;;5034082;28;20025;-76
2021/03/30 05:22:14;;;;;;;47.47;15.05;;;256.30;1843.20;;;;;;5033383;28;20277;-78
2021/03/30 05:24:39;;;;;;;;;;;256.20;1817.60;;;;;;5033919;28;20087;-75
2021/03/30 05:27:06;;;;;;;34.80;15.85;;;256.40;1792.00;;;;;;5015786;28;19909;-74
2021/03/30 05:29:42;;;;;;;35.05;17.33;;;256.30;1817.60;;;;;;5033256;28;20524;-75
2021/03/30 05:32:09;;;;;;;;;;;256.30;1817.60;;;;;;5033863;28;20033;-74
2021/03/30 05:34:34;;;;;;;40.20;20.40;;;256.40;1843.20;;;;;;5033210;28;19933;-74
2021/03/30 05:37:00;;;;;;;;;;;256.30;1868.80;;;;;;5041269;28;20060;-75
2021/03/30 05:39:25;;;;;;;59.55;28.05;;;256.30;1843.20;;;;;;5040341;28;20275;-75
2021/03/30 05:41:51;;;;;;;;;;;256.30;1868.80;;;;;;5039257;28;20025;-73
2021/03/30 05:44:17;;;;;;;38.30;20.00;;;256.30;1868.80;;;;;;5040134;28;19917;-74
2021/03/30 05:46:45;;;;;;;;;;;256.30;1843.20;;;;;;5025634;28;20060;-75
2021/03/30 05:49:11;;;;;;;34.10;20.20;;;256.50;1843.20;;;;;;5024716;28;19952;-75
2021/03/30 05:51:40;;;;;;;44.88;20.30;;;256.70;1843.20;;;;;;5028265;28;20093;-75
2021/03/30 05:54:07;;;;;;;38.08;17.90;;;256.70;1843.20;;;;;;5024305;28;20044;-80
2021/03/30 05:56:36;;;;;;;36.17;18.17;;;256.80;1843.20;;;;;;5035390;28;20104;-74
2021/03/30 05:59:05;;;;;;;39.33;20.45;;;256.70;1843.20;;;;;;5036765;28;20049;-74
2021/03/30 06:01:31;;;;;;;49.88;24.23;;;256.70;1843.20;;;;;;5041574;28;20021;-75
2021/03/30 06:04:01;;;;;;;58.00;24.95;;;256.80;1868.80;;;;;;5026310;28;20033;-77
2021/03/30 06:06:27;;;;;;;50.95;24.70;;;281.60;1868.80;;;;;;5023181;28;20021;-80
2021/03/30 06:08:52;;;;;;;42.28;21.23;;;281.60;1894.40;;;;;;5038113;28;20068;-77
2021/03/30 06:11:18;;;;;;;41.88;20.02;;;281.60;1894.40;;;;;;5028647;28;20037;-78
2021/03/30 06:13:50;;;;;;;;;;;281.90;1843.20;;;;;;5021966;28;20030;-75
2021/03/30 06:16:40;;;;;;;34.83;17.80;;;282.10;1792.00;;;;;;5022168;28;20454;-75
2021/03/30 06:19:16;;;;;;;35.58;16.52;;;282.20;1740.80;;;;;;5021287;28;20057;-76
2021/03/30 06:21:43;;;;;;;27.85;15.95;;;282.40;1740.80;;;;;;5021333;28;20508;-81
2021/03/30 06:24:21;;;;;;;22.52;14.10;;;307.20;1740.80;;;;;;5023371;28;20068;-75
2021/03/30 06:26:48;;;;;;;27.52;15.10;;;307.30;1740.80;;;;;;5035759;28;20043;-84
2021/03/30 06:29:43;;;;;;;25.83;15.98;;;307.40;1715.20;;;;;;5032766;28;20044;-74
2021/03/30 06:32:12;;;;;;;26.27;14.95;;;307.50;1715.20;;;;;;4971962;28;20089;-79
2021/03/30 06:34:41;;;;;;;38.67;14.07;;;307.60;1715.20;;;;;;4965769;28;20069;-75
2021/03/30 06:37:28;;;;;;;24.58;14.40;;;307.70;1689.60;;;;;;4971976;28;20046;-84
2021/03/30 06:39:55;;;;;;;29.67;15.43;;;307.80;1689.60;;;;;;4971555;28;20035;-76
2021/03/30 06:42:47;;;;;;;32.20;14.50;;;308.00;1664.00;;;;;;4971590;28;20117;-74
2021/03/30 06:45:17;;;;;;;24.85;14.50;;;308.10;1664.00;;;;;;4971840;28;20027;-79
2021/03/30 06:47:46;;;;;;;26.73;15.20;;;308.10;1638.40;;;;;;4971602;28;20130;-81
2021/03/30 06:50:23;;;;;;;22.33;12.57;;;332.90;1638.40;;;;;;4972021;28;20039;-74
2021/03/30 06:52:48;;;;;;;28.38;13.18;;;332.90;1638.40;;;;;;4972036;28;20023;-80
2021/03/30 06:55:29;;;;;;;29.25;14.20;;;332.90;1638.40;;;;;;4972996;28;20066;-75
2021/03/30 06:58:02;;;;;;;27.75;14.15;;;333.00;1638.40;;;;;;4971749;28;20114;-83
2021/03/30 07:00:37;;;;;;;20.40;14.38;;;333.10;1638.40;;;;;;4955847;28;20114;-81
2021/03/30 07:03:08;;;;;;;25.92;14.02;;;333.20;1638.40;;;;;;4971618;28;20035;-74
2021/03/30 07:05:42;;;;;;;23.67;12.60;;;333.30;1561.60;;;;;;4971797;28;20046;-82
2021/03/30 07:08:19;;;;;;;26.38;13.05;;;333.50;1536.00;;;;;;4997186;28;20033;-81
2021/03/30 07:10:47;;;;;;;30.00;12.43;;;333.60;1510.40;;;;;;5017901;28;20065;-75
2021/03/30 07:13:14;;;;;;;26.50;12.27;;;358.40;1510.40;;;;;;5032172;28;20022;-75
2021/03/30 07:15:41;;;;;;;21.20;12.40;;;358.50;1459.20;;;;;;5042116;28;20100;-81
2021/03/30 07:18:28;;;;;;;21.88;12.05;;;358.60;1484.80;;;;;;5021780;28;20474;-75
2021/03/30 07:21:02;;;;;;;17.85;9.63;;;358.70;1484.80;;;;;;5015260;28;20030;-82
2021/03/30 07:23:33;;;;;;;18.23;10.25;;;358.80;1433.60;;;;;;5029207;28;20423;-80
2021/03/30 07:26:05;;;;;;;24.77;10.23;;;358.80;1382.40;;;;;;5035685;28;20017;-76
2021/03/30 07:28:43;;;;;;;24.13;10.32;;;358.90;1433.60;;;;;;5034633;28;20022;-75
2021/03/30 07:31:14;;;;;;;24.10;10.35;;;359.00;1356.80;;;;;;5027267;28;20022;-82
2021/03/30 07:33:52;;;;;;;13.98;7.43;;;359.00;1382.40;;;;;;5036809;28;20087;-74
2021/03/30 07:36:20;;;;;;;12.27;6.82;;;359.00;1331.20;;;;;;5041005;28;20026;-75
2021/03/30 07:38:51;;;;;;;17.38;7.20;;;359.00;1305.60;;;;;;5035048;28;20071;-81
2021/03/30 07:41:22;;;;;;;15.10;6.13;;;359.10;1280.00;;;;;;5027630;28;20482;-86
2021/03/30 07:43:49;;;;;;;13.65;6.05;;;359.20;1254.40;;;;;;5032221;28;20073;-74
2021/03/30 07:46:17;;;;;;;14.68;6.68;;;359.20;1228.80;;;;;;5035196;28;20030;-80
2021/03/30 07:48:44;;;;;;;15.88;5.43;;;359.30;1254.40;;;;;;5033674;28;20538;-75
2021/03/30 07:51:12;;;;;;;12.90;5.72;;;359.30;1203.20;;;;;;5029615;28;20037;-75
2021/03/30 07:53:47;;;;;;;18.55;6.82;;;384.10;1203.20;;;;;;5021985;28;20048;-77
2021/03/30 07:56:39;;;;;;;12.55;5.97;;;384.00;1228.80;;;;;;5029011;28;20025;-79
2021/03/30 07:59:06;;;;;;;16.02;6.57;;;384.10;1280.00;;;;;;5035059;28;20017;-75
2021/03/30 08:01:33;;;;;;;14.05;6.90;;;384.10;1280.00;;;;;;5028957;28;20100;-80
2021/03/30 08:04:01;;;;;;;16.10;6.10;;;384.20;1280.00;;;;;;5034819;28;20107;-76
2021/03/30 08:06:32;;;;;;;11.23;5.68;;;384.30;1254.40;;;;;;5034780;28;20017;-75
2021/03/30 08:09:08;;;;;;;13.70;6.00;;;384.30;1228.80;;;;;;5034719;28;20030;-78
2021/03/30 08:11:40;;;;;;;13.38;5.13;;;384.40;1280.00;;;;;;5028285;28;20045;-74
2021/03/30 08:14:23;;;;;;;14.05;4.78;;;384.50;1228.80;;;;;;5027640;28;20022;-74
2021/03/30 08:16:52;;;;;;;12.20;5.43;;;384.50;1177.60;;;;;;5039923;28;20049;-76
2021/03/30 08:19:19;;;;;;;19.60;5.88;;;384.60;1177.60;;;;;;5038407;28;20021;-77
2021/03/30 08:21:58;;;;;;;12.30;5.95;;;384.70;1203.20;;;;;;5036407;28;20021;-76
2021/03/30 08:24:45;;;;;;;11.60;4.55;;;384.80;1177.60;;;;;;5034513;28;20040;-77
2021/03/30 08:27:35;;;;;;;14.38;5.80;;;384.90;1152.00;;;;;;5027890;28;20026;-77
2021/03/30 08:30:06;;;;;;;10.70;5.88;;;384.90;1152.00;;;;;;5030495;28;20554;-76
2021/03/30 08:32:33;;;;;;;14.23;5.57;;;384.90;1152.00;;;;;;5031306;28;20390;-77
2021/03/30 08:35:10;;;;;;;14.70;6.00;;;409.60;1177.60;;;;;;5028860;28;20054;-76
2021/03/30 08:37:41;;;;;;;8.60;4.85;;;409.60;1177.60;;;;;;5034227;28;20026;-76
2021/03/30 08:40:33;;;;;;;11.20;5.10;;;409.70;1177.60;;;;;;5037799;28;20025;-75
2021/03/30 08:42:59;;;;;;;13.25;5.78;;;409.70;1152.00;;;;;;5023851;28;20049;-77
2021/03/30 08:45:25;;;;;;;13.00;5.28;;;409.70;1126.40;;;;;;5020883;28;20497;-78
2021/03/30 08:47:51;;;;;;;19.13;5.60;;;409.90;1100.80;;;;;;5043974;28;20044;-77
2021/03/30 08:50:23;;;;;;;11.93;4.82;;;409.90;1100.80;;;;;;5034001;28;20018;-77
2021/03/30 08:52:50;;;;;;;12.15;4.82;;;409.90;1075.20;;;;;;5033986;28;20079;-80
2021/03/30 08:55:37;;;;;;;10.40;4.55;;;410.00;1126.40;;;;;;5016446;28;20027;-81
2021/03/30 08:58:04;;;;;;;13.88;4.38;;;410.00;1126.40;;;;;;5032736;28;20018;-78
2021/03/30 09:00:30;;;;;;;7.78;3.72;;;410.00;1075.20;;;;;;5029601;28;20021;-76
2021/03/30 09:02:59;;;;;;;12.23;4.13;;;410.00;1075.20;;;;;;5033750;28;20037;-77
2021/03/30 09:05:25;;;;;;;12.13;3.95;;;410.00;1075.20;;;;;;5041899;28;20068;-80
2021/03/30 09:07:51;;;;;;;6.82;3.72;;;410.20;1075.20;;;;;;5041271;28;20017;-79
2021/03/30 09:10:17;;;;;;;9.15;3.33;;;410.20;1049.60;;;;;;5045905;28;20358;-79
2021/03/30 09:12:47;;;;;;;12.63;4.15;;;410.20;1049.60;;;;;;5057323;28;20078;-83
2021/03/30 09:15:14;;;;;;;8.70;5.10;;;410.20;1024.00;;;;;;5062665;28;20016;-81
2021/03/30 09:17:58;;;;;;;8.45;3.70;;;410.30;1075.20;;;;;;5061536;28;20040;-80
2021/03/30 09:20:26;;;;;;;8.77;5.00;;;410.30;1049.60;;;;;;5055889;28;20066;-80
2021/03/30 09:22:55;;;;;;;12.63;5.05;;;410.50;1075.20;;;;;;5056541;28;20107;-80
2021/03/30 09:27:59;;;;;;;9.02;4.57;;;435.50;1049.60;;;;;;5046716;28;20027;-79
2021/03/30 09:30:26;;;;;;;9.48;5.22;;;435.60;1024.00;;;;;;5053255;28;20060;-80
2021/03/30 09:32:54;;;;;;;16.50;5.40;;;435.70;1024.00;;;;;;5042651;28;20470;-79
2021/03/30 09:35:25;;;;;;;11.23;5.88;;;435.80;998.40;;;;;;5045977;28;20082;-77
2021/03/30 09:38:03;;;;;;;9.70;4.97;;;435.90;1024.00;;;;;;5049476;28;20029;-77
2021/03/30 09:40:41;;;;;;;11.13;5.22;;;436.00;1024.00;;;;;;5052727;28;20024;-76
2021/03/30 09:43:12;;;;;;;11.88;5.50;;;436.10;998.40;;;;;;5049338;28;20041;-77
2021/03/30 09:45:40;;;;;;;11.43;4.60;;;460.80;1024.00;;;;;;5052477;28;20047;-77
2021/03/30 09:48:10;;;;;;;12.60;4.63;;;460.90;1024.00;;;;;;5053049;28;20100;-78
2021/03/30 09:50:41;;;;;;;14.82;5.28;;;461.00;998.40;;;;;;5041074;28;20416;-79
2021/03/30 09:53:08;;;;;;;14.98;6.25;;;461.20;998.40;;;;;;5050929;28;20027;-78
2021/03/30 09:55:40;;;;;;;19.60;5.65;;;461.40;998.40;;;;;;5051496;28;20029;-77
2021/03/30 09:58:11;;;;;;;11.68;5.78;;;461.40;972.80;;;;;;5052568;28;20074;-78
2021/03/30 10:00:46;;;;;;;14.43;6.40;;;461.40;972.80;;;;;;5052839;28;20024;-77
2021/03/30 10:03:13;;;;;;;9.98;5.43;;;461.40;998.40;;;;;;5051229;28;20385;-77
2021/03/30 10:05:41;;;;;;;10.40;5.45;;;461.60;972.80;;;;;;5051537;28;20029;-78
2021/03/30 10:08:24;;;;;;;14.75;6.03;;;461.70;998.40;;;;;;5052764;28;20074;-80
2021/03/30 10:10:53;;;;;;;18.95;6.85;;;461.60;972.80;;;;;;5058441;28;20047;-77
2021/03/30 10:13:29;;;;;;;10.60;5.95;;;461.50;998.40;;;;;;5059231;28;20025;-78
2021/03/30 10:15:57;;;;;;;16.85;6.18;;;461.30;998.40;;;;;;5053800;28;20529;-76
2021/03/30 10:18:26;;;;;;;12.88;7.30;;;461.00;1024.00;;;;;;5049109;28;20057;-77
2021/03/30 10:20:56;;;;;;;11.10;6.57;;;461.00;1024.00;;;;;;5029088;28;20025;-78
2021/03/30 10:23:26;;;;;;;17.27;8.38;;;460.80;1049.60;;;;;;5045125;28;20030;-77
2021/03/30 10:25:52;;;;;;;13.88;7.00;;;460.90;1024.00;;;;;;5023912;28;20536;-78
2021/03/30 10:28:30;;;;;;;14.90;7.57;;;461.00;1024.00;;;;;;5049806;28;20029;-78
2021/03/30 10:31:07;;;;;;;12.20;6.00;;;461.40;998.40;;;;;;5049736;28;20018;-78
2021/03/30 10:33:39;;;;;;;9.30;5.15;;;461.50;998.40;;;;;;5048049;28;20029;-76
2021/03/30 10:36:09;;;;;;;10.95;5.90;;;461.60;972.80;;;;;;5044524;28;20028;-78
2021/03/30 10:38:36;;;;;;;10.27;5.55;;;461.50;972.80;;;;;;5041904;28;20529;-78
2021/03/30 10:41:07;;;;;;;16.10;6.22;;;461.60;972.80;;;;;;5041865;28;20030;-76
2021/03/30 10:43:33;;;;;;;10.95;5.88;;;486.40;972.80;;;;;;5048652;28;20044;-79
2021/03/30 10:45:59;;;;;;;10.80;5.88;;;486.80;972.80;;;;;;5034603;28;20377;-78
2021/03/30 10:48:25;;;;;;;9.85;5.93;;;487.20;921.60;;;;;;5043292;28;20022;-79
2021/03/30 10:50:54;;;;;;;10.52;5.95;;;512.20;896.00;;;;;;5039686;28;20435;-76
2021/03/30 10:53:22;;;;;;;8.75;5.32;;;512.30;870.40;;;;;;5032633;28;20431;-76
2021/03/30 10:55:48;;;;;;;17.73;6.03;;;512.70;896.00;;;;;;5032472;28;20022;-78
2021/03/30 10:58:16;;;;;;;10.52;4.97;;;512.80;947.20;;;;;;5033494;28;20025;-77
2021/03/30 11:00:42;;;;;;;11.45;5.70;;;512.90;896.00;;;;;;5039001;28;20025;-76
2021/03/30 11:03:08;;;;;;;9.80;6.00;;;537.70;921.60;;;;;;5036297;28;20250;-83
2021/03/30 11:05:35;;;;;;;7.72;4.97;;;538.00;870.40;;;;;;5044958;28;20124;-83
2021/03/30 11:08:02;;;;;;;10.80;4.90;;;538.00;921.60;;;;;;5054574;28;20094;-77
2021/03/30 11:10:28;;;;;;;10.13;4.68;;;538.30;870.40;;;;;;5042430;28;20469;-81
2021/03/30 11:12:54;;;;;;;10.45;4.25;;;538.30;870.40;;;;;;5034776;28;20135;-81
2021/03/30 11:15:20;;;;;;;10.68;5.32;;;538.50;870.40;;;;;;5055975;28;20055;-82
2021/03/30 11:17:46;;;;;;;10.80;5.38;;;538.40;870.40;;;;;;5055950;28;20075;-81
2021/03/30 11:20:13;;;;;;;12.05;4.82;;;538.40;844.80;;;;;;5028648;28;20129;-76
2021/03/30 11:22:49;;;;;;;7.75;4.35;;;538.00;921.60;;;;;;5052751;28;20023;-79
2021/03/30 11:25:15;;;;;;;9.63;4.63;;;538.20;844.80;;;;;;5045558;28;20453;-78
2021/03/30 11:27:45;;;;;;;12.40;4.65;;;538.00;844.80;;;;;;5038334;28;20408;-77
2021/03/30 11:30:22;;;;;;;8.07;4.40;;;538.00;819.20;;;;;;5046374;28;20427;-77
2021/03/30 11:35:36;;;;;;;12.30;6.05;;;538.00;819.20;;;;;;4955549;29;20130;-76
2021/03/30 11:40:31;;;;;;;16.73;5.97;;;537.80;896.00;;;;;;4955200;29;20039;-76
2021/03/30 11:42:57;;;;;;;10.43;5.82;;;537.80;896.00;;;;;;4955223;28;20039;-76
2021/03/30 11:45:23;;;;;;;10.23;6.03;;;538.00;870.40;;;;;;4955354;28;20139;-76
2021/03/30 11:47:48;;;;;;;15.85;4.97;;;537.60;870.40;;;;;;4955084;29;20036;-77
2021/03/30 11:50:14;;;;;;;13.75;4.88;;;537.80;870.40;;;;;;4955171;28;20059;-76
2021/03/30 11:52:40;;;;;;;16.33;5.90;;;538.00;870.40;;;;;;4955012;29;20039;-77
2021/03/30 11:55:06;;;;;;;13.07;6.03;;;538.00;947.20;;;;;;4954785;28;20027;-75
2021/03/30 11:57:32;;;;;;;16.52;5.70;;;537.90;896.00;;;;;;4955057;29;20114;-75
2021/03/30 11:59:58;;;;;;;15.15;6.00;;;538.10;844.80;;;;;;4954954;29;20118;-75
2021/03/30 12:02:24;;;;;;;11.52;4.88;;;537.90;947.20;;;;;;4954735;28;20030;-76
2021/03/30 12:04:49;;;;;;;9.77;5.75;;;538.20;844.80;;;;;;4955234;28;20126;-76
2021/03/30 12:07:15;;;;;;;13.48;5.78;;;538.50;844.80;;;;;;4954380;29;20039;-77
2021/03/30 12:09:41;;;;;;;11.13;5.20;;;563.40;844.80;;;;;;4953819;28;20411;-76
2021/03/30 12:12:07;;;;;;;11.90;4.95;;;563.50;870.40;;;;;;4961732;28;20049;-76
2021/03/30 12:14:33;;;;;;;13.38;5.78;;;563.40;844.80;;;;;;5023041;28;20523;-76
2021/03/30 12:16:59;;;;;;;9.00;5.20;;;563.70;844.80;;;;;;5022878;28;20113;-76
2021/03/30 12:19:24;;;;;;;9.48;5.18;;;563.40;870.40;;;;;;5025869;28;20398;-76
2021/03/30 12:21:52;;;;;;;9.73;4.55;;;538.20;870.40;;;;;;5022397;28;20033;-75
2021/03/30 12:24:18;;;;;;;9.50;4.80;;;537.90;870.40;;;;;;5024194;28;20025;-77
2021/03/30 12:26:43;;;;;;;12.82;6.38;;;537.70;896.00;;;;;;5025220;28;20500;-75
2021/03/30 12:29:09;;;;;;;11.27;5.75;;;512.90;896.00;;;;;;5006014;28;20116;-76
2021/03/30 12:31:35;;;;;;;10.73;6.43;;;512.80;896.00;;;;;;5020750;28;20385;-75